Taipak, Kazakhstan
Current Conditions -  °F | °C
As of 4:30 PM on Thursday 30 Oct 2014 (Local Time) from UATG Reporting Station
Clear Clear  
Wind Chill:   Ceiling: Unl
Heat Index:   Visibility: 6mi
Dew Point: -6°   Wind: 11mph
Humidity: 39%   Direction: 120°ESE
Pressure: 30.42"   Gusts: NA
Location:  49.05°N, 51.87°E
Report Text: UATG 301230Z 12005MPS CAVOK 07/M06 Q1030 R14/CLRD70 NOSIG RMKQFE775/1033
Loading
Personal Weather Stations






























Interactive Weather Map
Tropical Storm Tracking
New forecast layout! Learn more

10-Day Weather Forecast

Advertisements
Track Severe Weather on mobile